首页
METAR-TAF:

METAR-TAF

机场 :

Fort Bragg, 北卡罗来纳州, 美国

纬度: 35-08N, 经度: 078-56W, 海拔: 74米

当前天气观测

该预报发布于30分钟前的23:56 UTC
风速4节,风向北转东北
温度 25°C
湿度 79%
气压 1019 hPa
能見度: 16.1公里
散云层高于4900英尺
散云层高于8500英尺

METAR: KFBG 232356Z AUTO 03004KT 10SM SCT049 SCT085 25/21 A3009 RMK AO2 SLP191 T02470214 10308 20247 52014 $

时间: 20:26 (00:26 UTC)

预报

该预报发布于7小时和26分钟前的17:00 UTC
预报有效从23日的 17点(UTC)到 24日的 23点(UTC)
风速6节,风向多变
能见度10公里或以上
散云层高于3500英尺
成为
从 24日的 02点(UTC)到 24日的 03点(UTC)
风速7节,风向北转东北
能见度10公里或以上
散云层高于700英尺
多云层高于1200英尺
成为
从 24日的 08点(UTC)到 24日的 09点(UTC)
风速3节,风向北转东北
能見度: 4800
多云层高于300英尺
轻雾
成为
从 24日的 14点(UTC)到 24日的 15点(UTC)
风速10节,风向东北,有时为15节阵风
能见度10公里或以上
散云层高于900英尺
多云层高于3000英尺
成为
从 24日的 18点(UTC)到 24日的 19点(UTC)
风速6节,风向
能见度10公里或以上
散云层高于4000英尺

TAF: KFBG 231700Z 2317/2423 VRB06KT 9999 SCT035 QNH3005INS BECMG 2402/2403 03007KT 9999 SCT007 BKN012 QNH3011INS BECMG 2408/2409 03003KT 4800 BR BKN003 QNH3012INS BECMG 2414/2415 04010G15KT 9999 NSW SCT009 BKN030 QNH3019INS BECMG 2418/2419 08006KT 9999 SCT040 QNH3011INS TX30/2320Z TN21/2412Z

超过4000个机场的气象观测和天气预报(METAR&TAF报告)。

可查询的气象台以黄色和红色小点在地图上表示。

将鼠标移到小点上方,可查看气象台名称。

然后点击查看天气观测和预报。

如需切换地图:点击带黑十字的绿色按钮放大地图;点击带横线的绿色按钮缩小地图;或者点击绿色箭头查看邻近地区的地图。


METAR-TAF: